sensor_id;sensor_type;location;lat;lon;timestamp;P1;durP1;ratioP1;P2;durP2;ratioP2
10529;SDS011;5313;48.834;9.228;2024-03-08T00:00:33;28.50;;;16.77;;
10529;SDS011;5313;48.834;9.228;2024-03-08T00:02:59;29.13;;;16.07;;
10529;SDS011;5313;48.834;9.228;2024-03-08T00:05:27;26.43;;;16.13;;
10529;SDS011;5313;48.834;9.228;2024-03-08T00:07:52;26.27;;;16.10;;
10529;SDS011;5313;48.834;9.228;2024-03-08T00:10:18;25.03;;;15.30;;
10529;SDS011;5313;48.834;9.228;2024-03-08T00:12:45;26.87;;;15.60;;
10529;SDS011;5313;48.834;9.228;2024-03-08T00:15:12;29.17;;;16.40;;
10529;SDS011;5313;48.834;9.228;2024-03-08T00:17:39;27.13;;;16.33;;
10529;SDS011;5313;48.834;9.228;2024-03-08T00:20:05;27.27;;;16.00;;
10529;SDS011;5313;48.834;9.228;2024-03-08T00:22:37;27.43;;;15.90;;
10529;SDS011;5313;48.834;9.228;2024-03-08T00:25:03;27.23;;;16.30;;
10529;SDS011;5313;48.834;9.228;2024-03-08T00:27:29;25.23;;;15.03;;
10529;SDS011;5313;48.834;9.228;2024-03-08T00:29:58;25.33;;;16.07;;
10529;SDS011;5313;48.834;9.228;2024-03-08T00:32:25;26.17;;;14.77;;
10529;SDS011;5313;48.834;9.228;2024-03-08T00:34:52;26.93;;;15.63;;
10529;SDS011;5313;48.834;9.228;2024-03-08T00:37:19;28.03;;;15.83;;
10529;SDS011;5313;48.834;9.228;2024-03-08T00:39:45;26.33;;;15.50;;
10529;SDS011;5313;48.834;9.228;2024-03-08T00:42:10;29.90;;;16.77;;
10529;SDS011;5313;48.834;9.228;2024-03-08T00:44:36;27.57;;;15.87;;
10529;SDS011;5313;48.834;9.228;2024-03-08T00:47:02;28.20;;;15.27;;
10529;SDS011;5313;48.834;9.228;2024-03-08T00:49:29;27.37;;;16.57;;
10529;SDS011;5313;48.834;9.228;2024-03-08T00:51:55;25.73;;;15.10;;
10529;SDS011;5313;48.834;9.228;2024-03-08T00:54:21;29.77;;;16.03;;
10529;SDS011;5313;48.834;9.228;2024-03-08T00:56:46;32.67;;;16.43;;
10529;SDS011;5313;48.834;9.228;2024-03-08T00:59:12;27.67;;;15.37;;
10529;SDS011;5313;48.834;9.228;2024-03-08T01:01:39;26.90;;;15.10;;
10529;SDS011;5313;48.834;9.228;2024-03-08T01:04:05;32.87;;;16.73;;
10529;SDS011;5313;48.834;9.228;2024-03-08T01:06:30;27.40;;;16.00;;
10529;SDS011;5313;48.834;9.228;2024-03-08T01:08:56;29.07;;;16.23;;
10529;SDS011;5313;48.834;9.228;2024-03-08T01:11:22;28.50;;;15.63;;
10529;SDS011;5313;48.834;9.228;2024-03-08T01:13:47;28.93;;;16.67;;
10529;SDS011;5313;48.834;9.228;2024-03-08T01:16:14;27.27;;;16.57;;
10529;SDS011;5313;48.834;9.228;2024-03-08T01:18:41;29.17;;;16.23;;
10529;SDS011;5313;48.834;9.228;2024-03-08T01:21:07;31.23;;;16.57;;
10529;SDS011;5313;48.834;9.228;2024-03-08T01:23:33;28.67;;;16.73;;
10529;SDS011;5313;48.834;9.228;2024-03-08T01:25:59;29.77;;;16.73;;
10529;SDS011;5313;48.834;9.228;2024-03-08T01:28:27;28.47;;;16.47;;
10529;SDS011;5313;48.834;9.228;2024-03-08T01:30:53;26.67;;;16.00;;
10529;SDS011;5313;48.834;9.228;2024-03-08T01:33:24;27.37;;;15.77;;
10529;SDS011;5313;48.834;9.228;2024-03-08T01:35:51;29.50;;;16.60;;
10529;SDS011;5313;48.834;9.228;2024-03-08T01:38:17;26.60;;;14.93;;
10529;SDS011;5313;48.834;9.228;2024-03-08T01:40:43;26.53;;;15.90;;
10529;SDS011;5313;48.834;9.228;2024-03-08T01:43:24;28.00;;;16.30;;
10529;SDS011;5313;48.834;9.228;2024-03-08T01:45:54;26.70;;;16.07;;
10529;SDS011;5313;48.834;9.228;2024-03-08T01:48:22;27.80;;;16.63;;
10529;SDS011;5313;48.834;9.228;2024-03-08T01:50:49;27.53;;;15.67;;
10529;SDS011;5313;48.834;9.228;2024-03-08T01:53:15;28.17;;;16.57;;
10529;SDS011;5313;48.834;9.228;2024-03-08T01:55:43;28.63;;;16.90;;
10529;SDS011;5313;48.834;9.228;2024-03-08T01:58:11;28.27;;;16.27;;
10529;SDS011;5313;48.834;9.228;2024-03-08T02:00:37;26.70;;;15.17;;
10529;SDS011;5313;48.834;9.228;2024-03-08T02:03:05;28.87;;;16.87;;
10529;SDS011;5313;48.834;9.228;2024-03-08T02:05:31;28.67;;;16.13;;
10529;SDS011;5313;48.834;9.228;2024-03-08T02:07:57;25.83;;;15.23;;
10529;SDS011;5313;48.834;9.228;2024-03-08T02:10:22;26.13;;;14.93;;
10529;SDS011;5313;48.834;9.228;2024-03-08T02:12:48;26.73;;;16.07;;
10529;SDS011;5313;48.834;9.228;2024-03-08T02:15:14;24.67;;;15.20;;
10529;SDS011;5313;48.834;9.228;2024-03-08T02:17:40;29.57;;;16.17;;
10529;SDS011;5313;48.834;9.228;2024-03-08T02:20:06;24.87;;;14.67;;
10529;SDS011;5313;48.834;9.228;2024-03-08T02:22:34;26.87;;;15.13;;
10529;SDS011;5313;48.834;9.228;2024-03-08T02:24:59;29.30;;;16.43;;
10529;SDS011;5313;48.834;9.228;2024-03-08T02:27:28;27.67;;;14.80;;
10529;SDS011;5313;48.834;9.228;2024-03-08T02:29:55;28.43;;;16.23;;
10529;SDS011;5313;48.834;9.228;2024-03-08T02:32:21;29.03;;;16.07;;
10529;SDS011;5313;48.834;9.228;2024-03-08T02:34:50;29.77;;;16.33;;
10529;SDS011;5313;48.834;9.228;2024-03-08T02:37:16;28.03;;;15.60;;
10529;SDS011;5313;48.834;9.228;2024-03-08T02:39:42;27.97;;;16.43;;
10529;SDS011;5313;48.834;9.228;2024-03-08T02:42:08;29.43;;;15.53;;
10529;SDS011;5313;48.834;9.228;2024-03-08T02:44:34;28.70;;;16.77;;
10529;SDS011;5313;48.834;9.228;2024-03-08T02:46:59;29.83;;;15.77;;
10529;SDS011;5313;48.834;9.228;2024-03-08T02:49:25;28.93;;;15.90;;
10529;SDS011;5313;48.834;9.228;2024-03-08T02:51:52;27.13;;;15.67;;
10529;SDS011;5313;48.834;9.228;2024-03-08T02:54:18;33.83;;;15.83;;
10529;SDS011;5313;48.834;9.228;2024-03-08T02:56:44;24.47;;;15.43;;
10529;SDS011;5313;48.834;9.228;2024-03-08T02:59:15;29.87;;;15.77;;
10529;SDS011;5313;48.834;9.228;2024-03-08T03:01:42;27.23;;;15.43;;
10529;SDS011;5313;48.834;9.228;2024-03-08T03:04:08;26.47;;;15.20;;
10529;SDS011;5313;48.834;9.228;2024-03-08T03:06:33;28.37;;;15.90;;
10529;SDS011;5313;48.834;9.228;2024-03-08T03:08:59;29.47;;;15.30;;
10529;SDS011;5313;48.834;9.228;2024-03-08T03:11:24;26.70;;;15.00;;
10529;SDS011;5313;48.834;9.228;2024-03-08T03:13:50;25.33;;;15.10;;
10529;SDS011;5313;48.834;9.228;2024-03-08T03:16:19;26.33;;;15.33;;
10529;SDS011;5313;48.834;9.228;2024-03-08T03:18:45;25.27;;;14.50;;
10529;SDS011;5313;48.834;9.228;2024-03-08T03:21:11;25.03;;;14.20;;
10529;SDS011;5313;48.834;9.228;2024-03-08T03:23:38;22.73;;;13.40;;
10529;SDS011;5313;48.834;9.228;2024-03-08T03:26:04;25.53;;;13.60;;
10529;SDS011;5313;48.834;9.228;2024-03-08T03:28:33;23.90;;;14.40;;
10529;SDS011;5313;48.834;9.228;2024-03-08T03:30:59;23.50;;;13.37;;
10529;SDS011;5313;48.834;9.228;2024-03-08T03:33:25;25.77;;;13.97;;
10529;SDS011;5313;48.834;9.228;2024-03-08T03:35:51;22.10;;;12.77;;
10529;SDS011;5313;48.834;9.228;2024-03-08T03:38:19;22.17;;;13.43;;
10529;SDS011;5313;48.834;9.228;2024-03-08T03:40:48;23.40;;;12.93;;
10529;SDS011;5313;48.834;9.228;2024-03-08T03:43:17;25.43;;;14.00;;
10529;SDS011;5313;48.834;9.228;2024-03-08T03:45:42;26.00;;;14.53;;
10529;SDS011;5313;48.834;9.228;2024-03-08T03:48:08;28.83;;;14.63;;
10529;SDS011;5313;48.834;9.228;2024-03-08T03:50:35;23.87;;;13.37;;
10529;SDS011;5313;48.834;9.228;2024-03-08T03:53:00;24.70;;;14.07;;
10529;SDS011;5313;48.834;9.228;2024-03-08T03:55:27;24.03;;;14.13;;
10529;SDS011;5313;48.834;9.228;2024-03-08T03:57:53;25.30;;;14.37;;
10529;SDS011;5313;48.834;9.228;2024-03-08T04:00:19;25.93;;;14.73;;
10529;SDS011;5313;48.834;9.228;2024-03-08T04:02:45;23.93;;;14.00;;
10529;SDS011;5313;48.834;9.228;2024-03-08T04:05:11;24.10;;;13.70;;
10529;SDS011;5313;48.834;9.228;2024-03-08T04:07:38;24.37;;;13.67;;
10529;SDS011;5313;48.834;9.228;2024-03-08T04:10:04;23.63;;;13.23;;
10529;SDS011;5313;48.834;9.228;2024-03-08T04:12:31;24.10;;;12.73;;
10529;SDS011;5313;48.834;9.228;2024-03-08T04:14:59;25.73;;;12.83;;
10529;SDS011;5313;48.834;9.228;2024-03-08T04:17:25;23.63;;;13.57;;
10529;SDS011;5313;48.834;9.228;2024-03-08T04:19:51;22.70;;;13.50;;
10529;SDS011;5313;48.834;9.228;2024-03-08T04:22:17;21.33;;;13.57;;
10529;SDS011;5313;48.834;9.228;2024-03-08T04:24:46;21.27;;;12.43;;
10529;SDS011;5313;48.834;9.228;2024-03-08T04:27:12;23.30;;;13.33;;
10529;SDS011;5313;48.834;9.228;2024-03-08T04:29:39;21.90;;;13.47;;
10529;SDS011;5313;48.834;9.228;2024-03-08T04:32:05;20.93;;;12.40;;
10529;SDS011;5313;48.834;9.228;2024-03-08T04:34:31;21.83;;;13.67;;
10529;SDS011;5313;48.834;9.228;2024-03-08T04:36:58;23.60;;;13.33;;
10529;SDS011;5313;48.834;9.228;2024-03-08T04:39:24;23.07;;;13.17;;
10529;SDS011;5313;48.834;9.228;2024-03-08T04:41:52;23.63;;;12.50;;
10529;SDS011;5313;48.834;9.228;2024-03-08T04:44:19;22.93;;;13.87;;
10529;SDS011;5313;48.834;9.228;2024-03-08T04:46:45;22.90;;;13.87;;
10529;SDS011;5313;48.834;9.228;2024-03-08T04:49:11;22.70;;;13.00;;
10529;SDS011;5313;48.834;9.228;2024-03-08T04:51:38;25.83;;;13.97;;
10529;SDS011;5313;48.834;9.228;2024-03-08T04:54:03;23.30;;;13.73;;
10529;SDS011;5313;48.834;9.228;2024-03-08T04:56:29;25.80;;;14.37;;
10529;SDS011;5313;48.834;9.228;2024-03-08T04:58:55;22.40;;;12.90;;
10529;SDS011;5313;48.834;9.228;2024-03-08T05:01:21;23.60;;;13.93;;
10529;SDS011;5313;48.834;9.228;2024-03-08T05:03:46;22.77;;;13.73;;
10529;SDS011;5313;48.834;9.228;2024-03-08T05:06:14;23.90;;;14.07;;
10529;SDS011;5313;48.834;9.228;2024-03-08T05:08:43;23.53;;;13.37;;
10529;SDS011;5313;48.834;9.228;2024-03-08T05:11:08;22.10;;;12.90;;
10529;SDS011;5313;48.834;9.228;2024-03-08T05:13:34;23.73;;;13.77;;
10529;SDS011;5313;48.834;9.228;2024-03-08T05:16:00;22.73;;;13.73;;
10529;SDS011;5313;48.834;9.228;2024-03-08T05:18:25;24.30;;;13.43;;
10529;SDS011;5313;48.834;9.228;2024-03-08T05:20:53;22.70;;;13.57;;
10529;SDS011;5313;48.834;9.228;2024-03-08T05:23:19;21.40;;;13.47;;
10529;SDS011;5313;48.834;9.228;2024-03-08T05:25:44;23.70;;;14.87;;
10529;SDS011;5313;48.834;9.228;2024-03-08T05:28:12;29.00;;;15.33;;
10529;SDS011;5313;48.834;9.228;2024-03-08T05:30:38;25.17;;;14.33;;
10529;SDS011;5313;48.834;9.228;2024-03-08T05:33:04;22.97;;;13.93;;
10529;SDS011;5313;48.834;9.228;2024-03-08T05:35:29;24.50;;;14.70;;
10529;SDS011;5313;48.834;9.228;2024-03-08T05:37:55;24.83;;;14.07;;
10529;SDS011;5313;48.834;9.228;2024-03-08T05:40:22;26.73;;;14.00;;
10529;SDS011;5313;48.834;9.228;2024-03-08T05:42:47;23.20;;;13.57;;
10529;SDS011;5313;48.834;9.228;2024-03-08T05:45:13;22.47;;;14.20;;
10529;SDS011;5313;48.834;9.228;2024-03-08T05:47:40;24.17;;;13.87;;
10529;SDS011;5313;48.834;9.228;2024-03-08T05:50:05;23.77;;;14.27;;
10529;SDS011;5313;48.834;9.228;2024-03-08T05:52:35;25.40;;;13.90;;
10529;SDS011;5313;48.834;9.228;2024-03-08T05:55:01;23.17;;;13.93;;
10529;SDS011;5313;48.834;9.228;2024-03-08T05:57:27;25.53;;;14.40;;
10529;SDS011;5313;48.834;9.228;2024-03-08T05:59:53;24.30;;;13.50;;
10529;SDS011;5313;48.834;9.228;2024-03-08T06:02:18;29.07;;;14.57;;
10529;SDS011;5313;48.834;9.228;2024-03-08T06:04:45;25.00;;;14.00;;
10529;SDS011;5313;48.834;9.228;2024-03-08T06:07:12;25.30;;;14.80;;
10529;SDS011;5313;48.834;9.228;2024-03-08T06:09:38;24.60;;;13.93;;
10529;SDS011;5313;48.834;9.228;2024-03-08T06:12:03;25.90;;;15.33;;
10529;SDS011;5313;48.834;9.228;2024-03-08T06:14:31;25.87;;;15.37;;
10529;SDS011;5313;48.834;9.228;2024-03-08T06:16:57;24.67;;;14.00;;
10529;SDS011;5313;48.834;9.228;2024-03-08T06:19:22;26.17;;;14.57;;
10529;SDS011;5313;48.834;9.228;2024-03-08T06:21:48;24.10;;;14.70;;
10529;SDS011;5313;48.834;9.228;2024-03-08T06:24:14;26.33;;;15.40;;
10529;SDS011;5313;48.834;9.228;2024-03-08T06:26:40;29.77;;;16.23;;
10529;SDS011;5313;48.834;9.228;2024-03-08T06:29:06;28.77;;;16.87;;
10529;SDS011;5313;48.834;9.228;2024-03-08T06:31:32;27.43;;;15.73;;
10529;SDS011;5313;48.834;9.228;2024-03-08T06:33:57;30.43;;;17.80;;
10529;SDS011;5313;48.834;9.228;2024-03-08T06:36:23;28.57;;;15.60;;
10529;SDS011;5313;48.834;9.228;2024-03-08T06:38:49;28.13;;;15.50;;
10529;SDS011;5313;48.834;9.228;2024-03-08T06:41:14;26.07;;;15.10;;
10529;SDS011;5313;48.834;9.228;2024-03-08T06:43:44;27.60;;;16.67;;
10529;SDS011;5313;48.834;9.228;2024-03-08T06:46:16;24.50;;;14.27;;
10529;SDS011;5313;48.834;9.228;2024-03-08T06:48:42;24.10;;;14.37;;
10529;SDS011;5313;48.834;9.228;2024-03-08T06:51:08;23.70;;;15.30;;
10529;SDS011;5313;48.834;9.228;2024-03-08T06:53:33;27.13;;;15.50;;
10529;SDS011;5313;48.834;9.228;2024-03-08T06:56:03;26.93;;;15.60;;
10529;SDS011;5313;48.834;9.228;2024-03-08T06:58:29;26.13;;;15.13;;
10529;SDS011;5313;48.834;9.228;2024-03-08T07:00:54;24.93;;;15.03;;
10529;SDS011;5313;48.834;9.228;2024-03-08T07:03:23;26.40;;;14.93;;
10529;SDS011;5313;48.834;9.228;2024-03-08T07:05:48;27.07;;;15.20;;
10529;SDS011;5313;48.834;9.228;2024-03-08T07:08:14;23.37;;;13.17;;
10529;SDS011;5313;48.834;9.228;2024-03-08T07:10:40;23.40;;;14.83;;
10529;SDS011;5313;48.834;9.228;2024-03-08T07:13:10;22.97;;;13.37;;
10529;SDS011;5313;48.834;9.228;2024-03-08T07:15:35;24.27;;;14.67;;
10529;SDS011;5313;48.834;9.228;2024-03-08T07:18:01;26.83;;;14.90;;
10529;SDS011;5313;48.834;9.228;2024-03-08T07:20:26;24.60;;;14.57;;
10529;SDS011;5313;48.834;9.228;2024-03-08T07:22:53;25.93;;;14.57;;
10529;SDS011;5313;48.834;9.228;2024-03-08T07:25:19;24.03;;;14.13;;
10529;SDS011;5313;48.834;9.228;2024-03-08T07:27:48;23.67;;;14.53;;
10529;SDS011;5313;48.834;9.228;2024-03-08T07:30:16;22.93;;;13.40;;
10529;SDS011;5313;48.834;9.228;2024-03-08T07:33:01;23.33;;;14.40;;
10529;SDS011;5313;48.834;9.228;2024-03-08T07:35:29;24.33;;;14.30;;
10529;SDS011;5313;48.834;9.228;2024-03-08T07:37:55;25.70;;;14.70;;
10529;SDS011;5313;48.834;9.228;2024-03-08T07:40:21;25.40;;;14.33;;
10529;SDS011;5313;48.834;9.228;2024-03-08T07:42:48;26.73;;;15.13;;
10529;SDS011;5313;48.834;9.228;2024-03-08T07:45:14;24.00;;;14.80;;
10529;SDS011;5313;48.834;9.228;2024-03-08T07:47:41;23.57;;;14.00;;
10529;SDS011;5313;48.834;9.228;2024-03-08T07:50:06;23.90;;;14.53;;
10529;SDS011;5313;48.834;9.228;2024-03-08T07:52:33;23.33;;;14.83;;
10529;SDS011;5313;48.834;9.228;2024-03-08T07:54:59;23.03;;;14.30;;
10529;SDS011;5313;48.834;9.228;2024-03-08T07:57:25;21.43;;;13.50;;
10529;SDS011;5313;48.834;9.228;2024-03-08T07:59:51;24.77;;;14.20;;
10529;SDS011;5313;48.834;9.228;2024-03-08T08:02:17;23.63;;;13.90;;
10529;SDS011;5313;48.834;9.228;2024-03-08T08:04:43;21.97;;;13.00;;
10529;SDS011;5313;48.834;9.228;2024-03-08T08:07:09;19.33;;;10.03;;
10529;SDS011;5313;48.834;9.228;2024-03-08T08:09:36;21.73;;;12.83;;
10529;SDS011;5313;48.834;9.228;2024-03-08T08:12:02;23.40;;;14.27;;
10529;SDS011;5313;48.834;9.228;2024-03-08T08:14:29;17.67;;;11.10;;
10529;SDS011;5313;48.834;9.228;2024-03-08T08:16:55;21.93;;;12.80;;
10529;SDS011;5313;48.834;9.228;2024-03-08T08:19:22;21.30;;;11.03;;
10529;SDS011;5313;48.834;9.228;2024-03-08T08:21:48;19.50;;;11.90;;
10529;SDS011;5313;48.834;9.228;2024-03-08T08:24:13;24.60;;;14.53;;
10529;SDS011;5313;48.834;9.228;2024-03-08T08:26:39;20.73;;;12.23;;
10529;SDS011;5313;48.834;9.228;2024-03-08T08:29:05;24.37;;;13.27;;
10529;SDS011;5313;48.834;9.228;2024-03-08T08:31:31;22.47;;;13.17;;
10529;SDS011;5313;48.834;9.228;2024-03-08T08:33:58;22.33;;;13.10;;
10529;SDS011;5313;48.834;9.228;2024-03-08T08:36:24;19.20;;;10.87;;
10529;SDS011;5313;48.834;9.228;2024-03-08T08:38:50;22.90;;;14.03;;
10529;SDS011;5313;48.834;9.228;2024-03-08T08:41:18;22.60;;;13.33;;
10529;SDS011;5313;48.834;9.228;2024-03-08T08:43:46;23.23;;;13.37;;
10529;SDS011;5313;48.834;9.228;2024-03-08T08:46:11;22.23;;;13.17;;
10529;SDS011;5313;48.834;9.228;2024-03-08T08:48:38;22.43;;;13.20;;
10529;SDS011;5313;48.834;9.228;2024-03-08T08:51:07;21.47;;;12.33;;
10529;SDS011;5313;48.834;9.228;2024-03-08T08:53:37;16.20;;;9.90;;
10529;SDS011;5313;48.834;9.228;2024-03-08T08:56:07;24.30;;;14.10;;
10529;SDS011;5313;48.834;9.228;2024-03-08T08:58:38;22.87;;;13.30;;
10529;SDS011;5313;48.834;9.228;2024-03-08T09:01:07;20.07;;;12.90;;
10529;SDS011;5313;48.834;9.228;2024-03-08T09:03:35;21.57;;;12.53;;
10529;SDS011;5313;48.834;9.228;2024-03-08T09:06:02;21.80;;;12.93;;
10529;SDS011;5313;48.834;9.228;2024-03-08T09:08:30;20.70;;;12.43;;
10529;SDS011;5313;48.834;9.228;2024-03-08T09:10:56;22.83;;;13.33;;
10529;SDS011;5313;48.834;9.228;2024-03-08T09:13:21;23.10;;;13.57;;
10529;SDS011;5313;48.834;9.228;2024-03-08T09:15:48;23.57;;;14.03;;
10529;SDS011;5313;48.834;9.228;2024-03-08T09:18:13;23.57;;;13.43;;
10529;SDS011;5313;48.834;9.228;2024-03-08T09:20:39;22.17;;;13.47;;
10529;SDS011;5313;48.834;9.228;2024-03-08T09:23:06;20.57;;;13.10;;
10529;SDS011;5313;48.834;9.228;2024-03-08T09:25:33;21.60;;;13.17;;
10529;SDS011;5313;48.834;9.228;2024-03-08T09:27:59;19.23;;;10.73;;
10529;SDS011;5313;48.834;9.228;2024-03-08T09:30:24;23.67;;;13.27;;
10529;SDS011;5313;48.834;9.228;2024-03-08T09:32:50;22.07;;;12.07;;
10529;SDS011;5313;48.834;9.228;2024-03-08T09:35:16;19.20;;;11.57;;
10529;SDS011;5313;48.834;9.228;2024-03-08T09:37:41;23.53;;;13.10;;
10529;SDS011;5313;48.834;9.228;2024-03-08T09:40:07;20.50;;;11.77;;
10529;SDS011;5313;48.834;9.228;2024-03-08T09:42:40;23.30;;;13.63;;
10529;SDS011;5313;48.834;9.228;2024-03-08T09:45:09;20.70;;;11.80;;
10529;SDS011;5313;48.834;9.228;2024-03-08T09:47:36;19.57;;;11.97;;
10529;SDS011;5313;48.834;9.228;2024-03-08T09:50:06;22.40;;;12.13;;
10529;SDS011;5313;48.834;9.228;2024-03-08T09:52:34;20.53;;;11.90;;
10529;SDS011;5313;48.834;9.228;2024-03-08T09:55:05;21.13;;;11.40;;
10529;SDS011;5313;48.834;9.228;2024-03-08T09:57:35;21.33;;;12.53;;
10529;SDS011;5313;48.834;9.228;2024-03-08T10:00:02;21.23;;;12.57;;
10529;SDS011;5313;48.834;9.228;2024-03-08T10:02:36;20.83;;;12.83;;
10529;SDS011;5313;48.834;9.228;2024-03-08T10:05:02;17.80;;;10.23;;
10529;SDS011;5313;48.834;9.228;2024-03-08T10:07:28;20.37;;;12.70;;
10529;SDS011;5313;48.834;9.228;2024-03-08T10:09:53;19.60;;;11.57;;
10529;SDS011;5313;48.834;9.228;2024-03-08T10:12:19;18.97;;;12.23;;
10529;SDS011;5313;48.834;9.228;2024-03-08T10:14:45;21.80;;;11.77;;
10529;SDS011;5313;48.834;9.228;2024-03-08T10:17:11;24.63;;;12.03;;
10529;SDS011;5313;48.834;9.228;2024-03-08T10:19:37;19.87;;;12.10;;
10529;SDS011;5313;48.834;9.228;2024-03-08T10:22:03;19.47;;;10.07;;
10529;SDS011;5313;48.834;9.228;2024-03-08T10:24:31;21.07;;;12.33;;
10529;SDS011;5313;48.834;9.228;2024-03-08T10:26:59;21.37;;;12.87;;
10529;SDS011;5313;48.834;9.228;2024-03-08T10:29:29;19.13;;;11.47;;
10529;SDS011;5313;48.834;9.228;2024-03-08T10:31:56;21.67;;;11.80;;
10529;SDS011;5313;48.834;9.228;2024-03-08T10:34:22;20.33;;;11.37;;
10529;SDS011;5313;48.834;9.228;2024-03-08T10:36:49;20.03;;;11.83;;
10529;SDS011;5313;48.834;9.228;2024-03-08T10:39:25;20.10;;;12.63;;
10529;SDS011;5313;48.834;9.228;2024-03-08T10:41:56;22.57;;;12.83;;
10529;SDS011;5313;48.834;9.228;2024-03-08T10:49:45;19.77;;;12.03;;
10529;SDS011;5313;48.834;9.228;2024-03-08T10:52:31;21.80;;;12.30;;
10529;SDS011;5313;48.834;9.228;2024-03-08T10:54:57;23.37;;;13.30;;
10529;SDS011;5313;48.834;9.228;2024-03-08T10:57:24;18.73;;;11.30;;
10529;SDS011;5313;48.834;9.228;2024-03-08T10:59:52;20.77;;;12.30;;
10529;SDS011;5313;48.834;9.228;2024-03-08T11:02:18;21.20;;;12.70;;
10529;SDS011;5313;48.834;9.228;2024-03-08T11:04:48;22.30;;;13.40;;
10529;SDS011;5313;48.834;9.228;2024-03-08T11:07:15;22.87;;;12.50;;
10529;SDS011;5313;48.834;9.228;2024-03-08T11:09:45;21.00;;;13.13;;
10529;SDS011;5313;48.834;9.228;2024-03-08T11:12:28;23.50;;;13.10;;
10529;SDS011;5313;48.834;9.228;2024-03-08T11:15:02;22.47;;;12.73;;
10529;SDS011;5313;48.834;9.228;2024-03-08T11:20:14;19.67;;;12.40;;
10529;SDS011;5313;48.834;9.228;2024-03-08T11:22:42;20.60;;;12.73;;
10529;SDS011;5313;48.834;9.228;2024-03-08T11:25:38;21.60;;;12.60;;
10529;SDS011;5313;48.834;9.228;2024-03-08T11:28:16;22.20;;;13.13;;
10529;SDS011;5313;48.834;9.228;2024-03-08T11:33:33;20.37;;;12.73;;
10529;SDS011;5313;48.834;9.228;2024-03-08T11:36:21;37.57;;;15.30;;
10529;SDS011;5313;48.834;9.228;2024-03-08T11:38:51;23.30;;;12.53;;
10529;SDS011;5313;48.834;9.228;2024-03-08T11:41:20;20.53;;;12.90;;
10529;SDS011;5313;48.834;9.228;2024-03-08T11:44:01;23.40;;;13.70;;
10529;SDS011;5313;48.834;9.228;2024-03-08T11:46:36;23.93;;;13.00;;
10529;SDS011;5313;48.834;9.228;2024-03-08T11:49:05;18.63;;;11.57;;
10529;SDS011;5313;48.834;9.228;2024-03-08T11:51:30;20.13;;;13.07;;
10529;SDS011;5313;48.834;9.228;2024-03-08T11:53:57;21.93;;;12.50;;
10529;SDS011;5313;48.834;9.228;2024-03-08T11:56:24;19.00;;;12.27;;
10529;SDS011;5313;48.834;9.228;2024-03-08T11:58:52;20.17;;;12.87;;
10529;SDS011;5313;48.834;9.228;2024-03-08T12:01:23;23.43;;;12.30;;
10529;SDS011;5313;48.834;9.228;2024-03-08T12:03:54;22.43;;;13.07;;
10529;SDS011;5313;48.834;9.228;2024-03-08T12:06:27;20.87;;;12.73;;
10529;SDS011;5313;48.834;9.228;2024-03-08T12:09:09;23.10;;;13.17;;
10529;SDS011;5313;48.834;9.228;2024-03-08T12:11:47;19.73;;;12.13;;
10529;SDS011;5313;48.834;9.228;2024-03-08T12:14:16;18.07;;;11.13;;
10529;SDS011;5313;48.834;9.228;2024-03-08T12:16:45;19.53;;;12.77;;
10529;SDS011;5313;48.834;9.228;2024-03-08T12:19:15;22.70;;;12.73;;
10529;SDS011;5313;48.834;9.228;2024-03-08T12:21:44;18.97;;;11.73;;
10529;SDS011;5313;48.834;9.228;2024-03-08T12:24:15;20.87;;;12.67;;
10529;SDS011;5313;48.834;9.228;2024-03-08T12:26:46;21.53;;;13.17;;
10529;SDS011;5313;48.834;9.228;2024-03-08T12:29:21;19.67;;;12.50;;
10529;SDS011;5313;48.834;9.228;2024-03-08T12:31:55;20.80;;;13.73;;
10529;SDS011;5313;48.834;9.228;2024-03-08T12:34:30;19.57;;;12.13;;
10529;SDS011;5313;48.834;9.228;2024-03-08T12:36:57;22.27;;;13.70;;
10529;SDS011;5313;48.834;9.228;2024-03-08T12:39:26;24.47;;;13.80;;
10529;SDS011;5313;48.834;9.228;2024-03-08T12:42:00;19.50;;;12.70;;
10529;SDS011;5313;48.834;9.228;2024-03-08T12:44:37;21.47;;;12.67;;
10529;SDS011;5313;48.834;9.228;2024-03-08T12:47:08;21.53;;;12.87;;
10529;SDS011;5313;48.834;9.228;2024-03-08T12:49:34;21.53;;;13.63;;
10529;SDS011;5313;48.834;9.228;2024-03-08T12:52:08;20.83;;;12.70;;
10529;SDS011;5313;48.834;9.228;2024-03-08T12:54:38;20.97;;;12.80;;
10529;SDS011;5313;48.834;9.228;2024-03-08T12:57:10;21.67;;;13.43;;
10529;SDS011;5313;48.834;9.228;2024-03-08T13:00:02;18.73;;;11.50;;
10529;SDS011;5313;48.834;9.228;2024-03-08T13:02:29;22.07;;;13.30;;
10529;SDS011;5313;48.834;9.228;2024-03-08T13:05:00;23.77;;;13.00;;
10529;SDS011;5313;48.834;9.228;2024-03-08T13:07:32;20.97;;;13.67;;
10529;SDS011;5313;48.834;9.228;2024-03-08T13:10:00;20.50;;;12.23;;
10529;SDS011;5313;48.834;9.228;2024-03-08T13:12:26;21.67;;;13.60;;
10529;SDS011;5313;48.834;9.228;2024-03-08T13:14:52;17.37;;;11.17;;
10529;SDS011;5313;48.834;9.228;2024-03-08T13:17:24;20.47;;;12.47;;
10529;SDS011;5313;48.834;9.228;2024-03-08T13:19:50;21.70;;;12.93;;
10529;SDS011;5313;48.834;9.228;2024-03-08T13:22:16;20.53;;;12.77;;
10529;SDS011;5313;48.834;9.228;2024-03-08T13:24:45;22.07;;;13.60;;
10529;SDS011;5313;48.834;9.228;2024-03-08T13:27:11;21.70;;;12.23;;
10529;SDS011;5313;48.834;9.228;2024-03-08T13:29:45;19.77;;;12.37;;
10529;SDS011;5313;48.834;9.228;2024-03-08T13:32:14;20.93;;;13.33;;
10529;SDS011;5313;48.834;9.228;2024-03-08T13:34:41;21.23;;;13.17;;
10529;SDS011;5313;48.834;9.228;2024-03-08T13:37:12;20.13;;;12.37;;
10529;SDS011;5313;48.834;9.228;2024-03-08T13:39:41;20.10;;;12.27;;
10529;SDS011;5313;48.834;9.228;2024-03-08T13:42:11;19.77;;;12.20;;
10529;SDS011;5313;48.834;9.228;2024-03-08T13:44:43;19.27;;;12.17;;
10529;SDS011;5313;48.834;9.228;2024-03-08T13:47:11;22.67;;;12.37;;
10529;SDS011;5313;48.834;9.228;2024-03-08T13:49:38;20.43;;;12.60;;
10529;SDS011;5313;48.834;9.228;2024-03-08T13:52:04;19.53;;;12.70;;
10529;SDS011;5313;48.834;9.228;2024-03-08T13:54:30;18.80;;;12.23;;
10529;SDS011;5313;48.834;9.228;2024-03-08T13:56:56;20.97;;;12.63;;
10529;SDS011;5313;48.834;9.228;2024-03-08T13:59:22;20.13;;;12.40;;
10529;SDS011;5313;48.834;9.228;2024-03-08T14:01:49;20.03;;;13.03;;
10529;SDS011;5313;48.834;9.228;2024-03-08T14:04:15;20.13;;;12.93;;
10529;SDS011;5313;48.834;9.228;2024-03-08T14:06:43;20.70;;;12.37;;
10529;SDS011;5313;48.834;9.228;2024-03-08T14:09:12;19.60;;;12.40;;
10529;SDS011;5313;48.834;9.228;2024-03-08T14:11:44;20.13;;;12.60;;
10529;SDS011;5313;48.834;9.228;2024-03-08T14:14:10;18.90;;;12.27;;
10529;SDS011;5313;48.834;9.228;2024-03-08T14:16:37;20.00;;;12.00;;
10529;SDS011;5313;48.834;9.228;2024-03-08T14:19:04;19.97;;;12.93;;
10529;SDS011;5313;48.834;9.228;2024-03-08T14:21:30;20.30;;;12.37;;
10529;SDS011;5313;48.834;9.228;2024-03-08T14:23:56;19.50;;;11.87;;
10529;SDS011;5313;48.834;9.228;2024-03-08T14:26:22;25.37;;;13.67;;
10529;SDS011;5313;48.834;9.228;2024-03-08T14:28:47;18.20;;;11.33;;
10529;SDS011;5313;48.834;9.228;2024-03-08T14:31:16;17.50;;;11.87;;
10529;SDS011;5313;48.834;9.228;2024-03-08T14:33:44;18.87;;;11.70;;
10529;SDS011;5313;48.834;9.228;2024-03-08T14:36:13;18.27;;;11.40;;
10529;SDS011;5313;48.834;9.228;2024-03-08T14:38:41;19.43;;;12.40;;
10529;SDS011;5313;48.834;9.228;2024-03-08T14:41:07;23.60;;;12.50;;
10529;SDS011;5313;48.834;9.228;2024-03-08T14:43:32;19.93;;;12.80;;
10529;SDS011;5313;48.834;9.228;2024-03-08T14:45:58;20.87;;;12.17;;